sensor_id;sensor_type;location;lat;lon;timestamp;temperature;humidity
16305;DHT22;8261;47.678;-122.174;2023-04-30T00:01:43;26.90;88.90
16305;DHT22;8261;47.678;-122.174;2023-04-30T00:04:14;27.10;87.80
16305;DHT22;8261;47.678;-122.174;2023-04-30T00:06:45;27.10;87.90
16305;DHT22;8261;47.678;-122.174;2023-04-30T00:09:16;26.70;89.10
16305;DHT22;8261;47.678;-122.174;2023-04-30T00:11:48;26.70;90.20
16305;DHT22;8261;47.678;-122.174;2023-04-30T00:14:19;26.80;90.50
16305;DHT22;8261;47.678;-122.174;2023-04-30T00:16:51;26.90;90.40
16305;DHT22;8261;47.678;-122.174;2023-04-30T00:19:22;27.10;90.00
16305;DHT22;8261;47.678;-122.174;2023-04-30T00:21:54;27.20;91.00
16305;DHT22;8261;47.678;-122.174;2023-04-30T00:24:25;27.20;90.50
16305;DHT22;8261;47.678;-122.174;2023-04-30T00:26:56;26.80;89.30
16305;DHT22;8261;47.678;-122.174;2023-04-30T00:29:26;26.50;89.80
16305;DHT22;8261;47.678;-122.174;2023-04-30T00:32:00;26.00;88.20
16305;DHT22;8261;47.678;-122.174;2023-04-30T00:34:30;26.00;90.20
16305;DHT22;8261;47.678;-122.174;2023-04-30T00:37:02;26.10;90.60
16305;DHT22;8261;47.678;-122.174;2023-04-30T00:39:34;26.40;90.00
16305;DHT22;8261;47.678;-122.174;2023-04-30T00:42:05;26.30;88.50
16305;DHT22;8261;47.678;-122.174;2023-04-30T00:44:36;26.50;87.80
16305;DHT22;8261;47.678;-122.174;2023-04-30T00:47:09;26.60;87.80
16305;DHT22;8261;47.678;-122.174;2023-04-30T00:49:40;26.10;89.20
16305;DHT22;8261;47.678;-122.174;2023-04-30T00:52:11;25.90;85.40
16305;DHT22;8261;47.678;-122.174;2023-04-30T00:54:43;25.70;87.00
16305;DHT22;8261;47.678;-122.174;2023-04-30T00:57:14;25.80;87.70
16305;DHT22;8261;47.678;-122.174;2023-04-30T00:59:46;26.40;86.50
16305;DHT22;8261;47.678;-122.174;2023-04-30T01:02:20;26.60;87.80
16305;DHT22;8261;47.678;-122.174;2023-04-30T01:04:52;27.10;83.90
16305;DHT22;8261;47.678;-122.174;2023-04-30T01:07:23;27.60;83.70
16305;DHT22;8261;47.678;-122.174;2023-04-30T01:09:56;26.70;82.80
16305;DHT22;8261;47.678;-122.174;2023-04-30T01:12:32;26.50;83.10
16305;DHT22;8261;47.678;-122.174;2023-04-30T01:15:10;26.50;82.20
16305;DHT22;8261;47.678;-122.174;2023-04-30T01:17:51;26.20;83.10
16305;DHT22;8261;47.678;-122.174;2023-04-30T01:20:26;26.90;83.90
16305;DHT22;8261;47.678;-122.174;2023-04-30T01:23:17;27.80;83.20
16305;DHT22;8261;47.678;-122.174;2023-04-30T01:26:04;28.30;83.20
16305;DHT22;8261;47.678;-122.174;2023-04-30T01:28:39;28.30;83.50
16305;DHT22;8261;47.678;-122.174;2023-04-30T01:31:14;27.60;82.60
16305;DHT22;8261;47.678;-122.174;2023-04-30T01:33:45;27.90;82.30
16305;DHT22;8261;47.678;-122.174;2023-04-30T01:36:29;27.40;82.30
16305;DHT22;8261;47.678;-122.174;2023-04-30T01:39:19;26.60;83.90
16305;DHT22;8261;47.678;-122.174;2023-04-30T01:42:00;26.80;84.30
16305;DHT22;8261;47.678;-122.174;2023-04-30T01:44:53;27.00;83.80
16305;DHT22;8261;47.678;-122.174;2023-04-30T01:47:35;26.90;85.50
16305;DHT22;8261;47.678;-122.174;2023-04-30T01:50:19;26.50;84.80
16305;DHT22;8261;47.678;-122.174;2023-04-30T01:52:52;26.50;86.10
16305;DHT22;8261;47.678;-122.174;2023-04-30T01:55:27;26.00;85.60
16305;DHT22;8261;47.678;-122.174;2023-04-30T01:58:01;25.30;86.50
16305;DHT22;8261;47.678;-122.174;2023-04-30T02:00:35;24.90;88.00
16305;DHT22;8261;47.678;-122.174;2023-04-30T02:03:06;24.80;89.10
16305;DHT22;8261;47.678;-122.174;2023-04-30T02:05:38;24.70;90.60
16305;DHT22;8261;47.678;-122.174;2023-04-30T02:08:09;24.50;90.20
16305;DHT22;8261;47.678;-122.174;2023-04-30T02:10:40;24.40;90.70
16305;DHT22;8261;47.678;-122.174;2023-04-30T02:13:11;24.20;90.20
16305;DHT22;8261;47.678;-122.174;2023-04-30T02:15:44;24.00;89.10
16305;DHT22;8261;47.678;-122.174;2023-04-30T02:18:15;23.90;90.40
16305;DHT22;8261;47.678;-122.174;2023-04-30T02:20:46;23.70;91.80
16305;DHT22;8261;47.678;-122.174;2023-04-30T02:23:18;23.60;91.40
16305;DHT22;8261;47.678;-122.174;2023-04-30T02:25:49;23.50;90.90
16305;DHT22;8261;47.678;-122.174;2023-04-30T02:28:20;23.40;90.90
16305;DHT22;8261;47.678;-122.174;2023-04-30T02:30:53;23.20;91.00
16305;DHT22;8261;47.678;-122.174;2023-04-30T02:33:25;23.10;91.50
16305;DHT22;8261;47.678;-122.174;2023-04-30T02:35:58;23.10;91.80
16305;DHT22;8261;47.678;-122.174;2023-04-30T02:38:29;23.00;92.40
16305;DHT22;8261;47.678;-122.174;2023-04-30T02:41:00;22.80;92.30
16305;DHT22;8261;47.678;-122.174;2023-04-30T02:43:31;22.70;92.70
16305;DHT22;8261;47.678;-122.174;2023-04-30T02:46:06;22.60;92.90
16305;DHT22;8261;47.678;-122.174;2023-04-30T02:48:37;22.50;92.70
16305;DHT22;8261;47.678;-122.174;2023-04-30T02:51:08;22.40;91.30
16305;DHT22;8261;47.678;-122.174;2023-04-30T02:53:39;22.20;91.80
16305;DHT22;8261;47.678;-122.174;2023-04-30T02:56:10;22.10;91.70
16305;DHT22;8261;47.678;-122.174;2023-04-30T02:58:42;21.90;90.70
16305;DHT22;8261;47.678;-122.174;2023-04-30T03:01:15;21.80;90.30
16305;DHT22;8261;47.678;-122.174;2023-04-30T03:03:46;21.60;90.00
16305;DHT22;8261;47.678;-122.174;2023-04-30T03:06:18;21.50;90.80
16305;DHT22;8261;47.678;-122.174;2023-04-30T03:08:49;21.30;90.80
16305;DHT22;8261;47.678;-122.174;2023-04-30T03:11:20;21.10;88.70
16305;DHT22;8261;47.678;-122.174;2023-04-30T03:13:52;21.00;88.60
16305;DHT22;8261;47.678;-122.174;2023-04-30T03:16:26;20.90;87.20
16305;DHT22;8261;47.678;-122.174;2023-04-30T03:18:59;20.80;86.50
16305;DHT22;8261;47.678;-122.174;2023-04-30T03:21:30;20.70;85.80
16305;DHT22;8261;47.678;-122.174;2023-04-30T03:24:01;20.60;86.50
16305;DHT22;8261;47.678;-122.174;2023-04-30T03:26:33;20.50;88.30
16305;DHT22;8261;47.678;-122.174;2023-04-30T03:29:04;20.30;90.10
16305;DHT22;8261;47.678;-122.174;2023-04-30T03:31:36;20.20;90.00
16305;DHT22;8261;47.678;-122.174;2023-04-30T03:34:08;20.00;91.20
16305;DHT22;8261;47.678;-122.174;2023-04-30T03:36:39;19.90;92.30
16305;DHT22;8261;47.678;-122.174;2023-04-30T03:39:11;19.70;92.60
16305;DHT22;8261;47.678;-122.174;2023-04-30T03:41:42;19.50;93.80
16305;DHT22;8261;47.678;-122.174;2023-04-30T03:44:13;19.30;93.80
16305;DHT22;8261;47.678;-122.174;2023-04-30T03:46:46;19.20;94.10
16305;DHT22;8261;47.678;-122.174;2023-04-30T03:49:17;19.00;94.60
16305;DHT22;8261;47.678;-122.174;2023-04-30T03:51:49;19.00;94.60
16305;DHT22;8261;47.678;-122.174;2023-04-30T03:54:19;18.80;95.10
16305;DHT22;8261;47.678;-122.174;2023-04-30T03:56:51;18.70;95.30
16305;DHT22;8261;47.678;-122.174;2023-04-30T03:59:23;18.60;96.90
16305;DHT22;8261;47.678;-122.174;2023-04-30T04:01:56;18.50;96.80
16305;DHT22;8261;47.678;-122.174;2023-04-30T04:04:29;18.40;96.80
16305;DHT22;8261;47.678;-122.174;2023-04-30T04:07:01;18.40;95.00
16305;DHT22;8261;47.678;-122.174;2023-04-30T04:09:32;18.40;95.10
16305;DHT22;8261;47.678;-122.174;2023-04-30T04:12:03;18.30;95.70
16305;DHT22;8261;47.678;-122.174;2023-04-30T04:14:34;18.20;95.40
16305;DHT22;8261;47.678;-122.174;2023-04-30T04:17:08;18.20;95.10
16305;DHT22;8261;47.678;-122.174;2023-04-30T04:19:39;18.10;95.40
16305;DHT22;8261;47.678;-122.174;2023-04-30T04:22:10;18.00;97.20
16305;DHT22;8261;47.678;-122.174;2023-04-30T04:24:42;18.00;98.50
16305;DHT22;8261;47.678;-122.174;2023-04-30T04:27:13;17.90;98.70
16305;DHT22;8261;47.678;-122.174;2023-04-30T04:29:45;17.70;99.90
16305;DHT22;8261;47.678;-122.174;2023-04-30T04:32:18;17.60;99.90
16305;DHT22;8261;47.678;-122.174;2023-04-30T04:34:50;17.60;99.90
16305;DHT22;8261;47.678;-122.174;2023-04-30T04:37:23;17.50;99.90
16305;DHT22;8261;47.678;-122.174;2023-04-30T04:39:54;17.40;99.40
16305;DHT22;8261;47.678;-122.174;2023-04-30T04:42:26;17.40;99.90
16305;DHT22;8261;47.678;-122.174;2023-04-30T04:44:57;17.40;99.90
16305;DHT22;8261;47.678;-122.174;2023-04-30T04:47:30;17.20;99.90
16305;DHT22;8261;47.678;-122.174;2023-04-30T04:50:02;17.20;99.90
16305;DHT22;8261;47.678;-122.174;2023-04-30T04:52:33;17.10;99.90
16305;DHT22;8261;47.678;-122.174;2023-04-30T04:55:05;17.00;99.90
16305;DHT22;8261;47.678;-122.174;2023-04-30T04:57:37;16.90;99.90
16305;DHT22;8261;47.678;-122.174;2023-04-30T05:00:10;16.90;99.90
16305;DHT22;8261;47.678;-122.174;2023-04-30T05:02:43;16.70;99.90
16305;DHT22;8261;47.678;-122.174;2023-04-30T05:05:15;16.60;99.90
16305;DHT22;8261;47.678;-122.174;2023-04-30T05:07:46;16.60;99.90
16305;DHT22;8261;47.678;-122.174;2023-04-30T05:10:20;16.50;99.90
16305;DHT22;8261;47.678;-122.174;2023-04-30T05:12:51;16.50;99.90
16305;DHT22;8261;47.678;-122.174;2023-04-30T05:15:23;16.40;99.90
16305;DHT22;8261;47.678;-122.174;2023-04-30T05:17:57;16.40;99.90
16305;DHT22;8261;47.678;-122.174;2023-04-30T05:20:28;16.40;99.90
16305;DHT22;8261;47.678;-122.174;2023-04-30T05:22:59;16.20;99.90
16305;DHT22;8261;47.678;-122.174;2023-04-30T05:25:30;16.20;99.90
16305;DHT22;8261;47.678;-122.174;2023-04-30T05:28:02;16.20;99.90
16305;DHT22;8261;47.678;-122.174;2023-04-30T05:30:34;16.10;99.90
16305;DHT22;8261;47.678;-122.174;2023-04-30T05:33:07;16.10;99.90
16305;DHT22;8261;47.678;-122.174;2023-04-30T05:35:39;16.10;99.90
16305;DHT22;8261;47.678;-122.174;2023-04-30T05:38:10;16.00;99.90
16305;DHT22;8261;47.678;-122.174;2023-04-30T05:40:42;16.00;99.90
16305;DHT22;8261;47.678;-122.174;2023-04-30T05:43:13;15.90;99.90
16305;DHT22;8261;47.678;-122.174;2023-04-30T05:45:44;15.80;99.90
16305;DHT22;8261;47.678;-122.174;2023-04-30T05:48:18;15.80;99.90
16305;DHT22;8261;47.678;-122.174;2023-04-30T05:50:49;15.70;99.90
16305;DHT22;8261;47.678;-122.174;2023-04-30T05:53:20;15.60;99.90
16305;DHT22;8261;47.678;-122.174;2023-04-30T05:55:52;15.50;99.90
16305;DHT22;8261;47.678;-122.174;2023-04-30T05:58:25;15.40;99.90
16305;DHT22;8261;47.678;-122.174;2023-04-30T06:00:57;15.40;99.90
16305;DHT22;8261;47.678;-122.174;2023-04-30T06:03:30;15.30;99.90
16305;DHT22;8261;47.678;-122.174;2023-04-30T06:06:02;15.30;99.90
16305;DHT22;8261;47.678;-122.174;2023-04-30T06:08:33;15.20;99.90
16305;DHT22;8261;47.678;-122.174;2023-04-30T06:11:06;15.10;99.90
16305;DHT22;8261;47.678;-122.174;2023-04-30T06:13:37;15.20;99.90
16305;DHT22;8261;47.678;-122.174;2023-04-30T06:16:08;15.10;99.90
16305;DHT22;8261;47.678;-122.174;2023-04-30T06:18:41;15.00;99.90
16305;DHT22;8261;47.678;-122.174;2023-04-30T06:21:12;15.00;99.90
16305;DHT22;8261;47.678;-122.174;2023-04-30T06:23:43;15.00;99.90
16305;DHT22;8261;47.678;-122.174;2023-04-30T06:26:15;14.90;99.90
16305;DHT22;8261;47.678;-122.174;2023-04-30T06:28:47;14.80;99.90
16305;DHT22;8261;47.678;-122.174;2023-04-30T06:31:18;14.80;99.90
16305;DHT22;8261;47.678;-122.174;2023-04-30T06:33:51;14.70;99.90
16305;DHT22;8261;47.678;-122.174;2023-04-30T06:36:22;14.70;99.90
16305;DHT22;8261;47.678;-122.174;2023-04-30T06:38:53;14.60;99.90
16305;DHT22;8261;47.678;-122.174;2023-04-30T06:41:24;14.60;99.90
16305;DHT22;8261;47.678;-122.174;2023-04-30T06:43:56;14.50;99.90
16305;DHT22;8261;47.678;-122.174;2023-04-30T06:46:27;14.50;99.90
16305;DHT22;8261;47.678;-122.174;2023-04-30T06:49:01;14.50;99.90
16305;DHT22;8261;47.678;-122.174;2023-04-30T06:51:32;14.40;99.90
16305;DHT22;8261;47.678;-122.174;2023-04-30T06:54:03;14.40;99.90
16305;DHT22;8261;47.678;-122.174;2023-04-30T06:56:35;14.60;99.90
16305;DHT22;8261;47.678;-122.174;2023-04-30T06:59:06;14.60;99.90
16305;DHT22;8261;47.678;-122.174;2023-04-30T07:01:37;14.70;99.90
16305;DHT22;8261;47.678;-122.174;2023-04-30T07:04:10;14.80;99.90
16305;DHT22;8261;47.678;-122.174;2023-04-30T07:06:41;14.90;99.90
16305;DHT22;8261;47.678;-122.174;2023-04-30T07:09:13;14.90;99.90
16305;DHT22;8261;47.678;-122.174;2023-04-30T07:11:44;14.80;99.90
16305;DHT22;8261;47.678;-122.174;2023-04-30T07:14:15;14.90;99.90
16305;DHT22;8261;47.678;-122.174;2023-04-30T07:16:48;14.90;99.90
16305;DHT22;8261;47.678;-122.174;2023-04-30T07:19:22;14.80;99.90
16305;DHT22;8261;47.678;-122.174;2023-04-30T07:21:54;14.70;99.90
16305;DHT22;8261;47.678;-122.174;2023-04-30T07:24:25;14.70;99.90
16305;DHT22;8261;47.678;-122.174;2023-04-30T07:26:57;14.70;99.90
16305;DHT22;8261;47.678;-122.174;2023-04-30T07:29:31;14.80;99.90
16305;DHT22;8261;47.678;-122.174;2023-04-30T07:32:03;14.70;99.90
16305;DHT22;8261;47.678;-122.174;2023-04-30T07:34:35;14.70;99.90
16305;DHT22;8261;47.678;-122.174;2023-04-30T07:37:08;14.70;99.90
16305;DHT22;8261;47.678;-122.174;2023-04-30T07:39:39;14.60;99.90
16305;DHT22;8261;47.678;-122.174;2023-04-30T07:42:10;14.50;99.90
16305;DHT22;8261;47.678;-122.174;2023-04-30T07:44:42;14.40;99.90
16305;DHT22;8261;47.678;-122.174;2023-04-30T07:47:14;14.40;99.90
16305;DHT22;8261;47.678;-122.174;2023-04-30T07:49:48;14.40;99.90
16305;DHT22;8261;47.678;-122.174;2023-04-30T07:52:20;14.40;99.90
16305;DHT22;8261;47.678;-122.174;2023-04-30T07:54:51;14.40;99.90
16305;DHT22;8261;47.678;-122.174;2023-04-30T07:57:23;14.40;99.90
16305;DHT22;8261;47.678;-122.174;2023-04-30T07:59:55;14.40;99.90
16305;DHT22;8261;47.678;-122.174;2023-04-30T08:02:27;14.40;99.90
16305;DHT22;8261;47.678;-122.174;2023-04-30T08:05:00;14.30;99.90
16305;DHT22;8261;47.678;-122.174;2023-04-30T08:07:31;14.30;99.90
16305;DHT22;8261;47.678;-122.174;2023-04-30T08:10:04;14.30;99.90
16305;DHT22;8261;47.678;-122.174;2023-04-30T08:12:35;14.20;99.90
16305;DHT22;8261;47.678;-122.174;2023-04-30T08:15:07;14.10;99.90
16305;DHT22;8261;47.678;-122.174;2023-04-30T08:17:38;14.00;99.90
16305;DHT22;8261;47.678;-122.174;2023-04-30T08:20:12;13.90;99.90
16305;DHT22;8261;47.678;-122.174;2023-04-30T08:22:44;13.90;99.90
16305;DHT22;8261;47.678;-122.174;2023-04-30T08:25:15;13.90;99.90
16305;DHT22;8261;47.678;-122.174;2023-04-30T08:27:46;13.80;99.90
16305;DHT22;8261;47.678;-122.174;2023-04-30T08:30:18;13.80;99.90
16305;DHT22;8261;47.678;-122.174;2023-04-30T08:32:49;13.80;99.90
16305;DHT22;8261;47.678;-122.174;2023-04-30T08:35:26;13.70;99.90
16305;DHT22;8261;47.678;-122.174;2023-04-30T08:37:57;13.70;99.90
16305;DHT22;8261;47.678;-122.174;2023-04-30T08:40:28;13.60;99.90
16305;DHT22;8261;47.678;-122.174;2023-04-30T08:43:18;13.60;99.90
16305;DHT22;8261;47.678;-122.174;2023-04-30T08:45:50;13.60;99.90
16305;DHT22;8261;47.678;-122.174;2023-04-30T08:48:23;13.50;99.90
16305;DHT22;8261;47.678;-122.174;2023-04-30T08:50:59;13.50;99.90
16305;DHT22;8261;47.678;-122.174;2023-04-30T08:53:35;13.50;99.90
16305;DHT22;8261;47.678;-122.174;2023-04-30T08:56:08;13.50;99.90
16305;DHT22;8261;47.678;-122.174;2023-04-30T08:58:40;13.40;99.90
16305;DHT22;8261;47.678;-122.174;2023-04-30T09:01:12;13.30;99.90
16305;DHT22;8261;47.678;-122.174;2023-04-30T09:03:43;13.30;99.90
16305;DHT22;8261;47.678;-122.174;2023-04-30T09:06:20;13.30;99.90
16305;DHT22;8261;47.678;-122.174;2023-04-30T09:08:51;13.20;99.90
16305;DHT22;8261;47.678;-122.174;2023-04-30T09:11:26;13.10;99.90
16305;DHT22;8261;47.678;-122.174;2023-04-30T09:13:59;13.10;99.90
16305;DHT22;8261;47.678;-122.174;2023-04-30T09:16:44;13.00;99.90
16305;DHT22;8261;47.678;-122.174;2023-04-30T09:19:26;12.90;99.90
16305;DHT22;8261;47.678;-122.174;2023-04-30T09:22:18;12.80;99.90
16305;DHT22;8261;47.678;-122.174;2023-04-30T09:24:50;12.80;99.90
16305;DHT22;8261;47.678;-122.174;2023-04-30T09:27:21;12.80;99.90
16305;DHT22;8261;47.678;-122.174;2023-04-30T09:29:53;12.70;99.90
16305;DHT22;8261;47.678;-122.174;2023-04-30T09:32:27;12.70;99.90
16305;DHT22;8261;47.678;-122.174;2023-04-30T09:34:59;12.60;99.90
16305;DHT22;8261;47.678;-122.174;2023-04-30T09:37:39;12.60;99.90
16305;DHT22;8261;47.678;-122.174;2023-04-30T09:40:10;12.60;99.90
16305;DHT22;8261;47.678;-122.174;2023-04-30T09:42:57;12.50;99.90
16305;DHT22;8261;47.678;-122.174;2023-04-30T09:45:39;12.50;99.90
16305;DHT22;8261;47.678;-122.174;2023-04-30T09:48:10;12.40;99.90
16305;DHT22;8261;47.678;-122.174;2023-04-30T09:50:45;12.40;99.90
16305;DHT22;8261;47.678;-122.174;2023-04-30T09:53:18;12.30;99.90
16305;DHT22;8261;47.678;-122.174;2023-04-30T09:55:49;12.30;99.90
16305;DHT22;8261;47.678;-122.174;2023-04-30T09:58:22;12.20;99.90
16305;DHT22;8261;47.678;-122.174;2023-04-30T10:00:58;12.10;99.90
16305;DHT22;8261;47.678;-122.174;2023-04-30T10:03:31;12.10;99.90
16305;DHT22;8261;47.678;-122.174;2023-04-30T10:06:02;12.10;99.90
16305;DHT22;8261;47.678;-122.174;2023-04-30T10:08:39;12.00;99.90
16305;DHT22;8261;47.678;-122.174;2023-04-30T10:11:14;12.00;99.90
16305;DHT22;8261;47.678;-122.174;2023-04-30T10:13:51;12.00;99.90
16305;DHT22;8261;47.678;-122.174;2023-04-30T10:16:31;12.10;99.90
16305;DHT22;8261;47.678;-122.174;2023-04-30T10:19:09;12.10;99.90
16305;DHT22;8261;47.678;-122.174;2023-04-30T10:21:44;12.10;99.90
16305;DHT22;8261;47.678;-122.174;2023-04-30T10:24:19;12.10;99.90
16305;DHT22;8261;47.678;-122.174;2023-04-30T10:26:50;12.00;99.90
16305;DHT22;8261;47.678;-122.174;2023-04-30T10:29:22;12.00;99.90
16305;DHT22;8261;47.678;-122.174;2023-04-30T10:31:53;12.00;99.90
16305;DHT22;8261;47.678;-122.174;2023-04-30T10:34:37;11.90;99.90
16305;DHT22;8261;47.678;-122.174;2023-04-30T10:37:17;11.90;99.90
16305;DHT22;8261;47.678;-122.174;2023-04-30T10:39:53;12.00;99.90
16305;DHT22;8261;47.678;-122.174;2023-04-30T10:42:25;11.90;99.90
16305;DHT22;8261;47.678;-122.174;2023-04-30T10:44:56;11.80;99.90
16305;DHT22;8261;47.678;-122.174;2023-04-30T10:47:28;11.80;99.90
16305;DHT22;8261;47.678;-122.174;2023-04-30T10:50:03;11.70;99.90
16305;DHT22;8261;47.678;-122.174;2023-04-30T10:52:37;11.70;99.90
16305;DHT22;8261;47.678;-122.174;2023-04-30T10:55:15;11.60;99.90
16305;DHT22;8261;47.678;-122.174;2023-04-30T10:57:46;11.60;99.90
16305;DHT22;8261;47.678;-122.174;2023-04-30T11:00:23;11.60;99.90
16305;DHT22;8261;47.678;-122.174;2023-04-30T11:03:02;11.50;99.90
16305;DHT22;8261;47.678;-122.174;2023-04-30T11:05:35;11.40;99.90
16305;DHT22;8261;47.678;-122.174;2023-04-30T11:08:11;11.40;99.90
16305;DHT22;8261;47.678;-122.174;2023-04-30T11:10:57;11.30;99.90
16305;DHT22;8261;47.678;-122.174;2023-04-30T11:13:37;11.20;99.90
16305;DHT22;8261;47.678;-122.174;2023-04-30T11:16:10;11.20;99.90
16305;DHT22;8261;47.678;-122.174;2023-04-30T11:18:43;11.10;99.90
16305;DHT22;8261;47.678;-122.174;2023-04-30T11:21:14;11.10;99.90
16305;DHT22;8261;47.678;-122.174;2023-04-30T11:23:49;11.10;99.90
16305;DHT22;8261;47.678;-122.174;2023-04-30T11:26:22;11.00;99.90
16305;DHT22;8261;47.678;-122.174;2023-04-30T11:28:55;10.90;99.90
16305;DHT22;8261;47.678;-122.174;2023-04-30T11:31:33;10.80;99.90
16305;DHT22;8261;47.678;-122.174;2023-04-30T11:34:04;10.80;99.90
16305;DHT22;8261;47.678;-122.174;2023-04-30T11:36:36;10.80;99.90
16305;DHT22;8261;47.678;-122.174;2023-04-30T11:39:11;10.80;99.90
16305;DHT22;8261;47.678;-122.174;2023-04-30T11:41:45;10.80;99.90
16305;DHT22;8261;47.678;-122.174;2023-04-30T11:44:24;10.70;99.90
16305;DHT22;8261;47.678;-122.174;2023-04-30T11:46:55;10.60;99.90
16305;DHT22;8261;47.678;-122.174;2023-04-30T11:49:27;10.60;99.90
16305;DHT22;8261;47.678;-122.174;2023-04-30T11:51:59;10.70;99.90
16305;DHT22;8261;47.678;-122.174;2023-04-30T11:54:31;10.60;99.90
16305;DHT22;8261;47.678;-122.174;2023-04-30T11:57:05;10.50;99.90
16305;DHT22;8261;47.678;-122.174;2023-04-30T11:59:40;10.50;99.90
16305;DHT22;8261;47.678;-122.174;2023-04-30T12:02:15;10.50;99.90
16305;DHT22;8261;47.678;-122.174;2023-04-30T12:04:46;10.50;99.90
16305;DHT22;8261;47.678;-122.174;2023-04-30T12:07:18;10.40;99.90
16305;DHT22;8261;47.678;-122.174;2023-04-30T12:09:53;10.40;99.90
16305;DHT22;8261;47.678;-122.174;2023-04-30T12:12:32;10.40;99.90
16305;DHT22;8261;47.678;-122.174;2023-04-30T12:15:14;10.20;99.90
16305;DHT22;8261;47.678;-122.174;2023-04-30T12:17:46;10.20;99.90
16305;DHT22;8261;47.678;-122.174;2023-04-30T12:20:17;10.20;99.90
16305;DHT22;8261;47.678;-122.174;2023-04-30T12:22:49;10.20;99.90
16305;DHT22;8261;47.678;-122.174;2023-04-30T12:25:21;10.20;99.90
16305;DHT22;8261;47.678;-122.174;2023-04-30T12:27:54;10.20;99.90
16305;DHT22;8261;47.678;-122.174;2023-04-30T12:30:29;10.30;99.90
16305;DHT22;8261;47.678;-122.174;2023-04-30T12:33:00;10.30;99.90
16305;DHT22;8261;47.678;-122.174;2023-04-30T12:35:32;10.30;99.90
16305;DHT22;8261;47.678;-122.174;2023-04-30T12:38:05;10.30;99.90
16305;DHT22;8261;47.678;-122.174;2023-04-30T12:40:37;10.30;99.90
16305;DHT22;8261;47.678;-122.174;2023-04-30T12:43:15;10.20;99.90
16305;DHT22;8261;47.678;-122.174;2023-04-30T12:45:48;10.30;99.90
16305;DHT22;8261;47.678;-122.174;2023-04-30T12:48:22;10.20;99.90
16305;DHT22;8261;47.678;-122.174;2023-04-30T12:50:55;10.30;99.90
16305;DHT22;8261;47.678;-122.174;2023-04-30T12:53:29;10.30;99.90
16305;DHT22;8261;47.678;-122.174;2023-04-30T12:56:11;10.30;99.90
16305;DHT22;8261;47.678;-122.174;2023-04-30T12:58:46;10.30;99.90
16305;DHT22;8261;47.678;-122.174;2023-04-30T13:01:19;10.20;99.90
16305;DHT22;8261;47.678;-122.174;2023-04-30T13:03:52;10.30;99.90
16305;DHT22;8261;47.678;-122.174;2023-04-30T13:06:23;10.30;99.90
16305;DHT22;8261;47.678;-122.174;2023-04-30T13:08:55;10.30;99.90
16305;DHT22;8261;47.678;-122.174;2023-04-30T13:11:26;10.20;99.90
16305;DHT22;8261;47.678;-122.174;2023-04-30T13:14:00;10.20;99.90
16305;DHT22;8261;47.678;-122.174;2023-04-30T13:16:32;10.20;99.90
16305;DHT22;8261;47.678;-122.174;2023-04-30T13:19:07;10.20;99.90
16305;DHT22;8261;47.678;-122.174;2023-04-30T13:21:38;10.20;99.90
16305;DHT22;8261;47.678;-122.174;2023-04-30T13:24:10;10.20;99.90
16305;DHT22;8261;47.678;-122.174;2023-04-30T13:26:42;10.30;99.90
16305;DHT22;8261;47.678;-122.174;2023-04-30T13:29:15;10.30;99.90
16305;DHT22;8261;47.678;-122.174;2023-04-30T13:31:48;10.30;99.90
16305;DHT22;8261;47.678;-122.174;2023-04-30T13:34:19;10.30;99.90
16305;DHT22;8261;47.678;-122.174;2023-04-30T13:36:51;10.40;99.90
16305;DHT22;8261;47.678;-122.174;2023-04-30T13:39:22;10.40;99.90
16305;DHT22;8261;47.678;-122.174;2023-04-30T13:41:54;10.40;99.90
16305;DHT22;8261;47.678;-122.174;2023-04-30T13:44:28;10.30;99.90
16305;DHT22;8261;47.678;-122.174;2023-04-30T13:47:00;10.40;99.90
16305;DHT22;8261;47.678;-122.174;2023-04-30T13:49:32;10.40;99.90
16305;DHT22;8261;47.678;-122.174;2023-04-30T13:52:04;10.60;99.90
16305;DHT22;8261;47.678;-122.174;2023-04-30T13:54:35;10.30;99.90
16305;DHT22;8261;47.678;-122.174;2023-04-30T13:57:07;10.40;99.90
16305;DHT22;8261;47.678;-122.174;2023-04-30T13:59:40;10.40;99.90
16305;DHT22;8261;47.678;-122.174;2023-04-30T14:02:12;10.40;99.90
16305;DHT22;8261;47.678;-122.174;2023-04-30T14:04:43;10.40;99.90
16305;DHT22;8261;47.678;-122.174;2023-04-30T14:07:32;10.30;99.90
16305;DHT22;8261;47.678;-122.174;2023-04-30T14:10:06;10.30;99.90
16305;DHT22;8261;47.678;-122.174;2023-04-30T14:12:38;10.50;99.90
16305;DHT22;8261;47.678;-122.174;2023-04-30T14:15:11;10.60;99.90
16305;DHT22;8261;47.678;-122.174;2023-04-30T14:17:43;10.70;99.90
16305;DHT22;8261;47.678;-122.174;2023-04-30T14:20:14;10.70;99.90
16305;DHT22;8261;47.678;-122.174;2023-04-30T14:22:47;10.90;99.90
16305;DHT22;8261;47.678;-122.174;2023-04-30T14:25:18;11.00;99.90
16305;DHT22;8261;47.678;-122.174;2023-04-30T14:27:49;11.00;99.90
16305;DHT22;8261;47.678;-122.174;2023-04-30T14:30:22;11.10;99.90
16305;DHT22;8261;47.678;-122.174;2023-04-30T14:32:53;11.20;99.90
16305;DHT22;8261;47.678;-122.174;2023-04-30T14:35:24;11.30;99.90
16305;DHT22;8261;47.678;-122.174;2023-04-30T14:37:57;11.30;99.90
16305;DHT22;8261;47.678;-122.174;2023-04-30T14:40:28;11.40;99.90
16305;DHT22;8261;47.678;-122.174;2023-04-30T14:42:59;11.50;99.90
16305;DHT22;8261;47.678;-122.174;2023-04-30T14:45:34;11.60;99.90
16305;DHT22;8261;47.678;-122.174;2023-04-30T14:48:06;11.70;99.90
16305;DHT22;8261;47.678;-122.174;2023-04-30T14:50:37;11.70;99.90
16305;DHT22;8261;47.678;-122.174;2023-04-30T14:53:09;11.60;99.90
16305;DHT22;8261;47.678;-122.174;2023-04-30T14:55:41;11.60;99.90
16305;DHT22;8261;47.678;-122.174;2023-04-30T14:58:13;11.60;99.90
16305;DHT22;8261;47.678;-122.174;2023-04-30T15:00:46;11.50;99.90
16305;DHT22;8261;47.678;-122.174;2023-04-30T15:03:18;11.50;99.90
16305;DHT22;8261;47.678;-122.174;2023-04-30T15:05:50;11.50;99.90
16305;DHT22;8261;47.678;-122.174;2023-04-30T15:08:21;11.60;99.90
16305;DHT22;8261;47.678;-122.174;2023-04-30T15:10:52;11.70;99.90
16305;DHT22;8261;47.678;-122.174;2023-04-30T15:13:25;11.80;99.90
16305;DHT22;8261;47.678;-122.174;2023-04-30T15:15:58;11.90;99.90
16305;DHT22;8261;47.678;-122.174;2023-04-30T15:18:30;12.00;99.90
16305;DHT22;8261;47.678;-122.174;2023-04-30T15:21:01;11.90;99.90
16305;DHT22;8261;47.678;-122.174;2023-04-30T15:23:32;11.90;99.90
16305;DHT22;8261;47.678;-122.174;2023-04-30T15:26:03;12.00;99.90
16305;DHT22;8261;47.678;-122.174;2023-04-30T15:28:34;12.00;99.90
16305;DHT22;8261;47.678;-122.174;2023-04-30T15:31:08;12.10;99.90
16305;DHT22;8261;47.678;-122.174;2023-04-30T15:33:39;11.80;99.90
16305;DHT22;8261;47.678;-122.174;2023-04-30T15:36:10;11.90;99.90
16305;DHT22;8261;47.678;-122.174;2023-04-30T15:38:42;11.90;99.90